Medon, Tennessee
Current Conditions -  °F | °C
As of 11:53 AM on Saturday 25 Oct 2014 (Local Time) from KMKL Reporting Station
Few Clouds Few Clouds  
Wind Chill: 76°   Ceiling: Unl
Heat Index: 76°   Visibility: 10mi
Dew Point: 61°   Wind: 7mph
Humidity: 60%   Direction: 330°NNW
Pressure: 30.08"   Gusts: NA
Location:  35.46°N, 88.87°W
Report Text: KMKL 251653Z 33006KT 10SM FEW041 24/16 A3008 RMK AO2 SLP182 T02440161
Loading
Personal Weather Stations






























Interactive Weather Map
Tropical Storm Tracking
New forecast layout! Learn more

10-Day Weather Forecast

Advertisements
Track Severe Weather on mobile